createdAt,value
2022-09-14T00:01:53.814Z,4.95
2022-09-14T00:11:57.539Z,4.55
2022-09-14T00:22:03.295Z,6.25
2022-09-14T00:32:05.873Z,7.28
2022-09-14T00:42:09.020Z,7.78
2022-09-14T00:52:23.574Z,8.32
2022-09-14T01:02:29.380Z,8.38
2022-09-14T01:12:53.477Z,9.60
2022-09-14T01:23:06.134Z,10.77
2022-09-14T01:33:22.316Z,11.32
2022-09-14T01:43:32.668Z,9.80
2022-09-14T01:53:51.896Z,11.23
2022-09-14T02:04:03.046Z,11.23
2022-09-14T02:14:05.821Z,10.93
2022-09-14T02:24:07.778Z,9.35
2022-09-14T02:34:22.373Z,11.32
2022-09-14T02:45:00.573Z,9.98
2022-09-14T02:55:15.033Z,11.90
2022-09-14T03:05:16.634Z,10.43
2022-09-14T03:15:19.202Z,9.50
2022-09-14T03:25:21.821Z,10.57
2022-09-14T03:35:24.166Z,11.88
2022-09-14T03:45:26.184Z,12.68
2022-09-14T03:55:28.415Z,12.65
2022-09-14T04:05:30.678Z,10.82
2022-09-14T04:15:32.389Z,10.43
2022-09-14T04:25:34.386Z,10.23
2022-09-14T04:35:36.321Z,10.10
2022-09-14T04:45:39.656Z,7.43
2022-09-14T04:55:47.061Z,6.38
2022-09-14T05:05:54.464Z,7.07
2022-09-14T05:15:58.285Z,6.30
2022-09-14T05:26:00.642Z,5.88
2022-09-14T05:36:13.823Z,7.00
2022-09-14T05:46:25.807Z,5.30
2022-09-14T05:56:38.187Z,6.22
2022-09-14T06:06:40.895Z,5.65
2022-09-14T06:16:44.147Z,6.15
2022-09-14T06:26:47.410Z,6.40
2022-09-14T06:36:50.155Z,7.72
2022-09-14T06:47:04.603Z,6.28
2022-09-14T06:57:09.862Z,8.20
2022-09-14T07:07:14.953Z,7.55
2022-09-14T07:17:18.848Z,7.97
2022-09-14T07:27:20.871Z,7.80
2022-09-14T07:37:22.899Z,6.65
2022-09-14T07:47:24.870Z,6.20
2022-09-14T07:57:45.427Z,8.88
2022-09-14T08:07:50.620Z,10.25
2022-09-14T08:17:55.278Z,11.07
2022-09-14T08:27:57.464Z,13.00
2022-09-14T08:37:59.065Z,7.38
2022-09-14T08:48:01.384Z,7.55
2022-09-14T08:58:28.524Z,7.57
2022-09-14T09:08:43.940Z,10.80
2022-09-14T09:19:07.387Z,11.20
2022-09-14T09:29:15.187Z,14.27
2022-09-14T09:39:38.469Z,13.52
2022-09-14T09:49:42.322Z,14.43
2022-09-14T09:59:49.007Z,17.67
2022-09-14T10:10:08.467Z,19.90
2022-09-14T10:20:24.878Z,16.27
2022-09-14T10:30:29.423Z,12.43
2022-09-14T10:40:43.842Z,13.43
2022-09-14T10:51:04.107Z,10.30
2022-09-14T11:01:06.059Z,11.27
2022-09-14T11:11:33.919Z,13.10
2022-09-14T11:21:48.008Z,10.93
2022-09-14T11:32:19.816Z,11.38
2022-09-14T11:42:33.985Z,10.32
2022-09-14T11:52:37.162Z,10.27
2022-09-14T12:02:40.317Z,9.88
2022-09-14T12:12:44.451Z,12.90
2022-09-14T12:22:49.983Z,14.65
2022-09-14T12:32:54.323Z,13.82
2022-09-14T12:42:56.967Z,13.02
2022-09-14T12:53:08.881Z,12.05
2022-09-14T13:03:30.804Z,11.32
2022-09-14T13:13:36.661Z,9.60
2022-09-14T13:23:44.724Z,10.55
2022-09-14T13:33:55.489Z,13.07
2022-09-14T13:43:59.985Z,10.23
2022-09-14T13:54:26.712Z,8.93
2022-09-14T14:04:41.184Z,9.27
2022-09-14T14:14:43.258Z,8.82
2022-09-14T14:25:11.928Z,8.98
2022-09-14T14:35:22.070Z,9.82
2022-09-14T14:45:32.206Z,8.07
2022-09-14T14:55:39.611Z,8.25
2022-09-14T15:05:50.968Z,4.85
2022-09-14T15:15:55.579Z,3.20
2022-09-14T15:25:59.740Z,2.42
2022-09-14T15:36:02.031Z,2.40
2022-09-14T15:46:08.344Z,2.40
2022-09-14T15:56:23.865Z,2.07
2022-09-14T16:06:27.545Z,2.20
2022-09-14T16:16:30.922Z,1.60
2022-09-14T16:26:37.171Z,1.88
2022-09-14T16:36:44.662Z,1.75
2022-09-14T16:46:48.725Z,1.42
2022-09-14T16:56:50.944Z,1.08
2022-09-14T17:06:58.328Z,1.55
2022-09-14T17:17:01.926Z,1.10
2022-09-14T17:27:03.906Z,1.90
2022-09-14T17:37:06.366Z,1.95
2022-09-14T17:47:09.763Z,2.67
2022-09-14T17:57:12.641Z,2.20
2022-09-14T18:07:14.987Z,2.30
2022-09-14T18:17:19.403Z,2.05
2022-09-14T18:27:22.139Z,2.55
2022-09-14T18:37:27.945Z,2.50
2022-09-14T18:47:29.983Z,2.13
2022-09-14T18:57:32.287Z,1.80
2022-09-14T19:07:43.818Z,1.63
2022-09-14T19:17:46.548Z,1.83
2022-09-14T19:27:49.344Z,1.60
